sensor_id;sensor_type;location;lat;lon;timestamp;P1;durP1;ratioP1;P2;durP2;ratioP2
39066;SDS011;24821;51.988;6.020;2023-08-30T00:00:14;6.82;;;6.30;;
39066;SDS011;24821;51.988;6.020;2023-08-30T00:02:42;6.18;;;5.78;;
39066;SDS011;24821;51.988;6.020;2023-08-30T00:05:09;9.93;;;6.40;;
39066;SDS011;24821;51.988;6.020;2023-08-30T00:07:35;6.28;;;5.78;;
39066;SDS011;24821;51.988;6.020;2023-08-30T00:10:00;6.22;;;5.75;;
39066;SDS011;24821;51.988;6.020;2023-08-30T00:12:27;6.32;;;5.93;;
39066;SDS011;24821;51.988;6.020;2023-08-30T00:14:53;5.50;;;5.20;;
39066;SDS011;24821;51.988;6.020;2023-08-30T00:17:19;6.88;;;6.05;;
39066;SDS011;24821;51.988;6.020;2023-08-30T00:19:45;6.30;;;5.70;;
39066;SDS011;24821;51.988;6.020;2023-08-30T00:22:10;6.75;;;6.35;;
39066;SDS011;24821;51.988;6.020;2023-08-30T00:24:37;6.25;;;5.88;;
39066;SDS011;24821;51.988;6.020;2023-08-30T00:27:03;5.93;;;5.53;;
39066;SDS011;24821;51.988;6.020;2023-08-30T00:29:29;6.35;;;5.85;;
39066;SDS011;24821;51.988;6.020;2023-08-30T00:31:55;6.15;;;5.65;;
39066;SDS011;24821;51.988;6.020;2023-08-30T00:34:21;5.68;;;5.32;;
39066;SDS011;24821;51.988;6.020;2023-08-30T00:36:46;6.40;;;5.90;;
39066;SDS011;24821;51.988;6.020;2023-08-30T00:39:12;5.40;;;5.00;;
39066;SDS011;24821;51.988;6.020;2023-08-30T00:41:38;6.00;;;5.50;;
39066;SDS011;24821;51.988;6.020;2023-08-30T00:44:04;6.32;;;5.80;;
39066;SDS011;24821;51.988;6.020;2023-08-30T00:46:30;6.28;;;5.78;;
39066;SDS011;24821;51.988;6.020;2023-08-30T00:48:58;6.38;;;6.00;;
39066;SDS011;24821;51.988;6.020;2023-08-30T00:51:25;5.65;;;5.25;;
39066;SDS011;24821;51.988;6.020;2023-08-30T00:53:51;7.45;;;6.45;;
39066;SDS011;24821;51.988;6.020;2023-08-30T00:56:19;6.57;;;5.97;;
39066;SDS011;24821;51.988;6.020;2023-08-30T00:58:45;7.03;;;6.50;;
39066;SDS011;24821;51.988;6.020;2023-08-30T01:01:11;6.05;;;5.65;;
39066;SDS011;24821;51.988;6.020;2023-08-30T01:03:38;6.22;;;5.75;;
39066;SDS011;24821;51.988;6.020;2023-08-30T01:06:04;7.28;;;6.78;;
39066;SDS011;24821;51.988;6.020;2023-08-30T01:08:30;7.03;;;6.47;;
39066;SDS011;24821;51.988;6.020;2023-08-30T01:13:40;6.55;;;6.05;;
39066;SDS011;24821;51.988;6.020;2023-08-30T01:16:10;5.93;;;5.53;;
39066;SDS011;24821;51.988;6.020;2023-08-30T01:18:36;6.70;;;5.47;;
39066;SDS011;24821;51.988;6.020;2023-08-30T01:21:04;6.15;;;5.65;;
39066;SDS011;24821;51.988;6.020;2023-08-30T01:26:24;6.68;;;5.95;;
39066;SDS011;24821;51.988;6.020;2023-08-30T01:28:58;6.95;;;5.72;;
39066;SDS011;24821;51.988;6.020;2023-08-30T01:31:27;5.97;;;5.47;;
39066;SDS011;24821;51.988;6.020;2023-08-30T01:33:54;6.47;;;5.97;;
39066;SDS011;24821;51.988;6.020;2023-08-30T01:36:22;5.88;;;5.45;;
39066;SDS011;24821;51.988;6.020;2023-08-30T01:38:48;7.60;;;7.00;;
39066;SDS011;24821;51.988;6.020;2023-08-30T01:41:14;6.07;;;5.65;;
39066;SDS011;24821;51.988;6.020;2023-08-30T01:43:40;6.05;;;5.55;;
39066;SDS011;24821;51.988;6.020;2023-08-30T01:46:07;6.65;;;5.88;;
39066;SDS011;24821;51.988;6.020;2023-08-30T01:48:33;6.15;;;5.72;;
39066;SDS011;24821;51.988;6.020;2023-08-30T01:51:00;5.80;;;5.38;;
39066;SDS011;24821;51.988;6.020;2023-08-30T01:53:27;6.57;;;6.07;;
39066;SDS011;24821;51.988;6.020;2023-08-30T01:55:53;6.95;;;6.22;;
39066;SDS011;24821;51.988;6.020;2023-08-30T01:58:19;7.10;;;5.47;;
39066;SDS011;24821;51.988;6.020;2023-08-30T02:00:45;6.15;;;5.75;;
39066;SDS011;24821;51.988;6.020;2023-08-30T02:03:11;6.38;;;5.90;;
39066;SDS011;24821;51.988;6.020;2023-08-30T02:05:51;5.80;;;5.50;;
39066;SDS011;24821;51.988;6.020;2023-08-30T02:08:21;6.57;;;6.18;;
39066;SDS011;24821;51.988;6.020;2023-08-30T02:10:56;6.38;;;5.88;;
39066;SDS011;24821;51.988;6.020;2023-08-30T02:13:27;7.47;;;6.20;;
39066;SDS011;24821;51.988;6.020;2023-08-30T02:15:55;7.22;;;6.57;;
39066;SDS011;24821;51.988;6.020;2023-08-30T02:18:24;6.20;;;5.80;;
39066;SDS011;24821;51.988;6.020;2023-08-30T02:20:50;7.20;;;6.60;;
39066;SDS011;24821;51.988;6.020;2023-08-30T02:23:16;6.60;;;6.07;;
39066;SDS011;24821;51.988;6.020;2023-08-30T02:25:41;7.40;;;6.80;;
39066;SDS011;24821;51.988;6.020;2023-08-30T02:28:07;5.97;;;5.40;;
39066;SDS011;24821;51.988;6.020;2023-08-30T02:30:33;7.43;;;6.93;;
39066;SDS011;24821;51.988;6.020;2023-08-30T02:32:58;7.70;;;5.50;;
39066;SDS011;24821;51.988;6.020;2023-08-30T02:35:24;7.50;;;6.80;;
39066;SDS011;24821;51.988;6.020;2023-08-30T02:37:49;6.20;;;5.70;;
39066;SDS011;24821;51.988;6.020;2023-08-30T02:40:15;7.50;;;6.88;;
39066;SDS011;24821;51.988;6.020;2023-08-30T02:42:41;6.35;;;5.80;;
39066;SDS011;24821;51.988;6.020;2023-08-30T02:45:06;6.15;;;5.75;;
39066;SDS011;24821;51.988;6.020;2023-08-30T02:47:32;8.30;;;6.03;;
39066;SDS011;24821;51.988;6.020;2023-08-30T02:49:58;7.10;;;6.35;;
39066;SDS011;24821;51.988;6.020;2023-08-30T02:52:23;6.40;;;5.80;;
39066;SDS011;24821;51.988;6.020;2023-08-30T02:54:49;6.78;;;6.00;;
39066;SDS011;24821;51.988;6.020;2023-08-30T02:57:15;7.15;;;6.57;;
39066;SDS011;24821;51.988;6.020;2023-08-30T02:59:40;7.15;;;6.50;;
39066;SDS011;24821;51.988;6.020;2023-08-30T03:02:06;6.70;;;6.22;;
39066;SDS011;24821;51.988;6.020;2023-08-30T03:04:31;6.35;;;5.85;;
39066;SDS011;24821;51.988;6.020;2023-08-30T03:06:57;5.60;;;5.20;;
39066;SDS011;24821;51.988;6.020;2023-08-30T03:09:22;6.53;;;5.93;;
39066;SDS011;24821;51.988;6.020;2023-08-30T03:11:48;8.30;;;6.47;;
39066;SDS011;24821;51.988;6.020;2023-08-30T03:14:13;7.78;;;6.80;;
39066;SDS011;24821;51.988;6.020;2023-08-30T03:16:41;7.70;;;6.88;;
39066;SDS011;24821;51.988;6.020;2023-08-30T03:19:07;7.78;;;7.07;;
39066;SDS011;24821;51.988;6.020;2023-08-30T03:21:33;7.55;;;6.97;;
39066;SDS011;24821;51.988;6.020;2023-08-30T03:23:59;7.18;;;6.68;;
39066;SDS011;24821;51.988;6.020;2023-08-30T03:26:24;5.93;;;5.43;;
39066;SDS011;24821;51.988;6.020;2023-08-30T03:28:50;7.32;;;6.82;;
39066;SDS011;24821;51.988;6.020;2023-08-30T03:31:16;6.20;;;5.70;;
39066;SDS011;24821;51.988;6.020;2023-08-30T03:33:44;6.40;;;6.00;;
39066;SDS011;24821;51.988;6.020;2023-08-30T03:36:11;6.55;;;6.03;;
39066;SDS011;24821;51.988;6.020;2023-08-30T03:38:38;5.65;;;5.35;;
39066;SDS011;24821;51.988;6.020;2023-08-30T03:41:04;6.22;;;5.63;;
39066;SDS011;24821;51.988;6.020;2023-08-30T03:43:31;6.20;;;5.80;;
39066;SDS011;24821;51.988;6.020;2023-08-30T03:45:58;6.55;;;5.95;;
39066;SDS011;24821;51.988;6.020;2023-08-30T03:48:24;5.40;;;5.00;;
39066;SDS011;24821;51.988;6.020;2023-08-30T03:50:50;6.88;;;6.32;;
39066;SDS011;24821;51.988;6.020;2023-08-30T03:53:15;6.15;;;5.75;;
39066;SDS011;24821;51.988;6.020;2023-08-30T03:55:41;6.13;;;5.63;;
39066;SDS011;24821;51.988;6.020;2023-08-30T03:58:06;6.47;;;5.90;;
39066;SDS011;24821;51.988;6.020;2023-08-30T04:00:33;7.20;;;6.53;;
39066;SDS011;24821;51.988;6.020;2023-08-30T04:03:01;7.03;;;6.45;;
39066;SDS011;24821;51.988;6.020;2023-08-30T04:05:27;7.72;;;7.13;;
39066;SDS011;24821;51.988;6.020;2023-08-30T04:07:58;7.70;;;7.10;;
39066;SDS011;24821;51.988;6.020;2023-08-30T04:10:24;7.07;;;6.30;;
39066;SDS011;24821;51.988;6.020;2023-08-30T04:12:50;7.07;;;6.50;;
39066;SDS011;24821;51.988;6.020;2023-08-30T04:15:15;7.38;;;6.78;;
39066;SDS011;24821;51.988;6.020;2023-08-30T04:17:41;7.10;;;6.60;;
39066;SDS011;24821;51.988;6.020;2023-08-30T04:20:06;8.68;;;7.72;;
39066;SDS011;24821;51.988;6.020;2023-08-30T04:22:33;7.93;;;7.28;;
39066;SDS011;24821;51.988;6.020;2023-08-30T04:24:59;6.65;;;6.15;;
39066;SDS011;24821;51.988;6.020;2023-08-30T04:27:25;7.78;;;7.10;;
39066;SDS011;24821;51.988;6.020;2023-08-30T04:29:52;10.15;;;7.13;;
39066;SDS011;24821;51.988;6.020;2023-08-30T04:32:18;7.80;;;7.00;;
39066;SDS011;24821;51.988;6.020;2023-08-30T04:34:43;9.30;;;7.82;;
39066;SDS011;24821;51.988;6.020;2023-08-30T04:37:09;7.80;;;7.05;;
39066;SDS011;24821;51.988;6.020;2023-08-30T04:39:34;7.82;;;7.13;;
39066;SDS011;24821;51.988;6.020;2023-08-30T04:42:00;8.00;;;7.22;;
39066;SDS011;24821;51.988;6.020;2023-08-30T04:44:27;8.40;;;7.15;;
39066;SDS011;24821;51.988;6.020;2023-08-30T04:46:53;8.32;;;7.70;;
39066;SDS011;24821;51.988;6.020;2023-08-30T04:49:19;6.65;;;6.07;;
39066;SDS011;24821;51.988;6.020;2023-08-30T04:51:45;8.02;;;6.80;;
39066;SDS011;24821;51.988;6.020;2023-08-30T04:54:11;7.30;;;6.60;;
39066;SDS011;24821;51.988;6.020;2023-08-30T04:56:36;8.80;;;6.68;;
39066;SDS011;24821;51.988;6.020;2023-08-30T04:59:02;8.23;;;7.35;;
39066;SDS011;24821;51.988;6.020;2023-08-30T05:01:29;9.20;;;7.63;;
39066;SDS011;24821;51.988;6.020;2023-08-30T05:03:55;8.23;;;7.22;;
39066;SDS011;24821;51.988;6.020;2023-08-30T05:06:20;6.53;;;6.10;;
39066;SDS011;24821;51.988;6.020;2023-08-30T05:08:46;7.97;;;7.25;;
39066;SDS011;24821;51.988;6.020;2023-08-30T05:11:12;8.50;;;7.18;;
39066;SDS011;24821;51.988;6.020;2023-08-30T05:13:37;9.48;;;7.50;;
39066;SDS011;24821;51.988;6.020;2023-08-30T05:16:03;8.63;;;7.82;;
39066;SDS011;24821;51.988;6.020;2023-08-30T05:18:29;7.72;;;7.13;;
39066;SDS011;24821;51.988;6.020;2023-08-30T05:20:54;8.05;;;7.20;;
39066;SDS011;24821;51.988;6.020;2023-08-30T05:23:20;9.73;;;7.70;;
39066;SDS011;24821;51.988;6.020;2023-08-30T05:25:45;7.95;;;7.20;;
39066;SDS011;24821;51.988;6.020;2023-08-30T05:28:11;8.35;;;7.60;;
39066;SDS011;24821;51.988;6.020;2023-08-30T05:30:38;7.35;;;6.85;;
39066;SDS011;24821;51.988;6.020;2023-08-30T05:33:06;12.32;;;7.15;;
39066;SDS011;24821;51.988;6.020;2023-08-30T05:35:32;9.00;;;7.68;;
39066;SDS011;24821;51.988;6.020;2023-08-30T05:37:57;10.23;;;9.02;;
39066;SDS011;24821;51.988;6.020;2023-08-30T05:40:23;8.10;;;7.32;;
39066;SDS011;24821;51.988;6.020;2023-08-30T05:42:49;8.93;;;7.18;;
39066;SDS011;24821;51.988;6.020;2023-08-30T05:45:15;14.02;;;7.20;;
39066;SDS011;24821;51.988;6.020;2023-08-30T05:47:41;8.77;;;7.88;;
39066;SDS011;24821;51.988;6.020;2023-08-30T05:50:06;7.45;;;6.78;;
39066;SDS011;24821;51.988;6.020;2023-08-30T05:52:32;9.85;;;7.70;;
39066;SDS011;24821;51.988;6.020;2023-08-30T05:54:58;8.35;;;7.55;;
39066;SDS011;24821;51.988;6.020;2023-08-30T05:57:24;8.60;;;7.75;;
39066;SDS011;24821;51.988;6.020;2023-08-30T05:59:50;8.20;;;7.53;;
39066;SDS011;24821;51.988;6.020;2023-08-30T06:02:16;7.72;;;6.93;;
39066;SDS011;24821;51.988;6.020;2023-08-30T06:04:42;9.25;;;6.78;;
39066;SDS011;24821;51.988;6.020;2023-08-30T06:07:07;8.43;;;7.60;;
39066;SDS011;24821;51.988;6.020;2023-08-30T06:09:33;7.68;;;6.93;;
39066;SDS011;24821;51.988;6.020;2023-08-30T06:11:59;9.23;;;8.32;;
39066;SDS011;24821;51.988;6.020;2023-08-30T06:14:24;7.80;;;7.03;;
39066;SDS011;24821;51.988;6.020;2023-08-30T06:16:50;9.98;;;8.45;;
39066;SDS011;24821;51.988;6.020;2023-08-30T06:19:16;10.40;;;8.35;;
39066;SDS011;24821;51.988;6.020;2023-08-30T06:21:41;9.73;;;8.00;;
39066;SDS011;24821;51.988;6.020;2023-08-30T06:24:07;8.75;;;7.50;;
39066;SDS011;24821;51.988;6.020;2023-08-30T06:26:32;9.68;;;7.50;;
39066;SDS011;24821;51.988;6.020;2023-08-30T06:28:58;12.50;;;9.43;;
39066;SDS011;24821;51.988;6.020;2023-08-30T06:31:24;8.63;;;7.93;;
39066;SDS011;24821;51.988;6.020;2023-08-30T06:33:49;9.90;;;8.90;;
39066;SDS011;24821;51.988;6.020;2023-08-30T06:36:15;9.93;;;8.93;;
39066;SDS011;24821;51.988;6.020;2023-08-30T06:38:42;11.38;;;9.30;;
39066;SDS011;24821;51.988;6.020;2023-08-30T06:41:08;9.48;;;8.57;;
39066;SDS011;24821;51.988;6.020;2023-08-30T06:43:34;12.23;;;9.98;;
39066;SDS011;24821;51.988;6.020;2023-08-30T06:45:59;12.65;;;9.30;;
39066;SDS011;24821;51.988;6.020;2023-08-30T06:48:25;10.38;;;9.52;;
39066;SDS011;24821;51.988;6.020;2023-08-30T06:50:51;13.32;;;10.27;;
39066;SDS011;24821;51.988;6.020;2023-08-30T06:53:16;14.35;;;9.10;;
39066;SDS011;24821;51.988;6.020;2023-08-30T06:55:42;11.70;;;10.60;;
39066;SDS011;24821;51.988;6.020;2023-08-30T06:58:07;14.23;;;10.43;;
39066;SDS011;24821;51.988;6.020;2023-08-30T07:00:33;10.35;;;9.50;;
39066;SDS011;24821;51.988;6.020;2023-08-30T07:02:59;11.27;;;10.13;;
39066;SDS011;24821;51.988;6.020;2023-08-30T07:05:24;11.35;;;10.25;;
39066;SDS011;24821;51.988;6.020;2023-08-30T07:07:50;15.98;;;9.52;;
39066;SDS011;24821;51.988;6.020;2023-08-30T07:10:16;9.98;;;9.00;;
39066;SDS011;24821;51.988;6.020;2023-08-30T07:12:41;11.70;;;9.35;;
39066;SDS011;24821;51.988;6.020;2023-08-30T07:15:07;10.70;;;9.60;;
39066;SDS011;24821;51.988;6.020;2023-08-30T07:17:33;9.43;;;8.63;;
39066;SDS011;24821;51.988;6.020;2023-08-30T07:19:59;12.40;;;10.73;;
39066;SDS011;24821;51.988;6.020;2023-08-30T07:22:24;11.60;;;9.45;;
39066;SDS011;24821;51.988;6.020;2023-08-30T07:24:50;11.98;;;9.13;;
39066;SDS011;24821;51.988;6.020;2023-08-30T07:27:16;13.18;;;10.65;;
39066;SDS011;24821;51.988;6.020;2023-08-30T07:29:41;11.23;;;10.25;;
39066;SDS011;24821;51.988;6.020;2023-08-30T07:32:08;9.98;;;8.98;;
39066;SDS011;24821;51.988;6.020;2023-08-30T07:34:34;20.10;;;11.13;;
39066;SDS011;24821;51.988;6.020;2023-08-30T07:37:00;10.48;;;9.48;;
39066;SDS011;24821;51.988;6.020;2023-08-30T07:39:26;12.25;;;9.95;;
39066;SDS011;24821;51.988;6.020;2023-08-30T07:41:52;10.07;;;8.88;;
39066;SDS011;24821;51.988;6.020;2023-08-30T07:44:18;10.80;;;9.57;;
39066;SDS011;24821;51.988;6.020;2023-08-30T07:46:45;10.25;;;9.38;;
39066;SDS011;24821;51.988;6.020;2023-08-30T07:49:10;10.82;;;9.13;;
39066;SDS011;24821;51.988;6.020;2023-08-30T07:51:36;10.27;;;9.32;;
39066;SDS011;24821;51.988;6.020;2023-08-30T07:54:02;9.13;;;8.38;;
39066;SDS011;24821;51.988;6.020;2023-08-30T07:56:27;8.02;;;7.43;;
39066;SDS011;24821;51.988;6.020;2023-08-30T07:58:54;11.50;;;8.73;;
39066;SDS011;24821;51.988;6.020;2023-08-30T08:01:19;8.25;;;7.50;;
39066;SDS011;24821;51.988;6.020;2023-08-30T08:03:45;14.43;;;8.15;;
39066;SDS011;24821;51.988;6.020;2023-08-30T08:06:12;9.60;;;7.88;;
39066;SDS011;24821;51.988;6.020;2023-08-30T08:08:37;8.60;;;6.65;;
39066;SDS011;24821;51.988;6.020;2023-08-30T08:11:03;9.85;;;8.93;;
39066;SDS011;24821;51.988;6.020;2023-08-30T08:13:28;8.68;;;7.93;;
39066;SDS011;24821;51.988;6.020;2023-08-30T08:15:57;10.10;;;7.78;;
39066;SDS011;24821;51.988;6.020;2023-08-30T08:18:23;10.23;;;8.55;;
39066;SDS011;24821;51.988;6.020;2023-08-30T08:20:48;8.05;;;7.38;;
39066;SDS011;24821;51.988;6.020;2023-08-30T08:23:15;8.98;;;7.90;;
39066;SDS011;24821;51.988;6.020;2023-08-30T08:25:40;8.02;;;7.47;;
39066;SDS011;24821;51.988;6.020;2023-08-30T08:28:06;7.85;;;7.07;;
39066;SDS011;24821;51.988;6.020;2023-08-30T08:30:31;10.32;;;7.22;;
39066;SDS011;24821;51.988;6.020;2023-08-30T08:32:57;8.05;;;7.30;;
39066;SDS011;24821;51.988;6.020;2023-08-30T08:35:23;6.65;;;6.10;;
39066;SDS011;24821;51.988;6.020;2023-08-30T08:37:49;10.00;;;8.20;;
39066;SDS011;24821;51.988;6.020;2023-08-30T08:40:15;8.10;;;6.95;;
39066;SDS011;24821;51.988;6.020;2023-08-30T08:42:41;8.55;;;6.97;;
39066;SDS011;24821;51.988;6.020;2023-08-30T08:45:07;10.35;;;7.68;;
39066;SDS011;24821;51.988;6.020;2023-08-30T08:47:35;8.13;;;7.43;;
39066;SDS011;24821;51.988;6.020;2023-08-30T08:50:02;9.20;;;7.47;;
39066;SDS011;24821;51.988;6.020;2023-08-30T08:52:28;8.60;;;7.90;;
39066;SDS011;24821;51.988;6.020;2023-08-30T08:54:54;11.57;;;8.20;;
39066;SDS011;24821;51.988;6.020;2023-08-30T08:57:20;9.13;;;8.25;;
39066;SDS011;24821;51.988;6.020;2023-08-30T08:59:46;9.18;;;8.25;;
39066;SDS011;24821;51.988;6.020;2023-08-30T09:02:12;9.15;;;8.27;;
39066;SDS011;24821;51.988;6.020;2023-08-30T09:04:39;8.38;;;7.68;;
39066;SDS011;24821;51.988;6.020;2023-08-30T09:07:05;9.50;;;8.57;;
39066;SDS011;24821;51.988;6.020;2023-08-30T09:09:32;9.48;;;8.75;;
39066;SDS011;24821;51.988;6.020;2023-08-30T09:11:58;14.40;;;11.88;;
39066;SDS011;24821;51.988;6.020;2023-08-30T09:14:24;10.98;;;9.82;;
39066;SDS011;24821;51.988;6.020;2023-08-30T09:16:59;11.40;;;10.23;;
39066;SDS011;24821;51.988;6.020;2023-08-30T09:19:26;11.73;;;10.52;;
39066;SDS011;24821;51.988;6.020;2023-08-30T09:21:52;9.00;;;8.35;;
39066;SDS011;24821;51.988;6.020;2023-08-30T09:24:19;9.93;;;9.13;;
39066;SDS011;24821;51.988;6.020;2023-08-30T09:27:02;10.30;;;9.25;;
39066;SDS011;24821;51.988;6.020;2023-08-30T09:29:28;11.25;;;10.20;;
39066;SDS011;24821;51.988;6.020;2023-08-30T09:31:55;10.48;;;9.38;;
39066;SDS011;24821;51.988;6.020;2023-08-30T09:34:24;11.45;;;9.88;;
39066;SDS011;24821;51.988;6.020;2023-08-30T09:36:53;11.77;;;10.48;;
39066;SDS011;24821;51.988;6.020;2023-08-30T09:39:20;10.23;;;9.32;;
39066;SDS011;24821;51.988;6.020;2023-08-30T09:41:47;11.73;;;10.23;;
39066;SDS011;24821;51.988;6.020;2023-08-30T09:44:13;9.57;;;8.82;;
39066;SDS011;24821;51.988;6.020;2023-08-30T09:46:44;10.40;;;9.40;;
39066;SDS011;24821;51.988;6.020;2023-08-30T09:49:11;9.20;;;8.30;;
39066;SDS011;24821;51.988;6.020;2023-08-30T09:51:38;8.90;;;8.10;;
39066;SDS011;24821;51.988;6.020;2023-08-30T09:54:13;9.55;;;8.65;;
39066;SDS011;24821;51.988;6.020;2023-08-30T09:56:41;9.45;;;8.52;;
39066;SDS011;24821;51.988;6.020;2023-08-30T09:59:08;8.50;;;7.82;;
39066;SDS011;24821;51.988;6.020;2023-08-30T10:01:36;9.30;;;8.25;;
39066;SDS011;24821;51.988;6.020;2023-08-30T10:04:02;8.27;;;7.57;;
39066;SDS011;24821;51.988;6.020;2023-08-30T10:06:29;7.40;;;6.78;;
39066;SDS011;24821;51.988;6.020;2023-08-30T10:08:55;8.85;;;8.25;;
39066;SDS011;24821;51.988;6.020;2023-08-30T10:11:24;7.75;;;7.03;;
39066;SDS011;24821;51.988;6.020;2023-08-30T10:13:51;8.07;;;7.50;;
39066;SDS011;24821;51.988;6.020;2023-08-30T10:16:22;10.20;;;8.45;;
39066;SDS011;24821;51.988;6.020;2023-08-30T10:18:52;7.82;;;7.32;;
39066;SDS011;24821;51.988;6.020;2023-08-30T10:21:19;9.10;;;8.20;;
39066;SDS011;24821;51.988;6.020;2023-08-30T10:23:47;7.20;;;6.70;;
39066;SDS011;24821;51.988;6.020;2023-08-30T10:26:17;8.35;;;7.57;;
39066;SDS011;24821;51.988;6.020;2023-08-30T10:28:44;7.68;;;6.97;;
39066;SDS011;24821;51.988;6.020;2023-08-30T10:31:12;8.85;;;8.10;;
39066;SDS011;24821;51.988;6.020;2023-08-30T10:33:54;10.63;;;8.15;;
39066;SDS011;24821;51.988;6.020;2023-08-30T10:36:21;7.97;;;7.38;;
39066;SDS011;24821;51.988;6.020;2023-08-30T10:38:50;7.97;;;7.38;;
39066;SDS011;24821;51.988;6.020;2023-08-30T10:41:26;8.38;;;7.68;;
39066;SDS011;24821;51.988;6.020;2023-08-30T10:43:52;10.75;;;8.05;;
39066;SDS011;24821;51.988;6.020;2023-08-30T10:46:32;8.82;;;8.20;;
39066;SDS011;24821;51.988;6.020;2023-08-30T10:49:11;9.10;;;8.15;;
39066;SDS011;24821;51.988;6.020;2023-08-30T10:51:40;9.77;;;9.07;;
39066;SDS011;24821;51.988;6.020;2023-08-30T10:54:13;11.05;;;10.10;;
39066;SDS011;24821;51.988;6.020;2023-08-30T10:56:47;10.40;;;9.40;;
39066;SDS011;24821;51.988;6.020;2023-08-30T10:59:20;10.30;;;8.43;;
39066;SDS011;24821;51.988;6.020;2023-08-30T11:01:46;9.73;;;9.02;;
39066;SDS011;24821;51.988;6.020;2023-08-30T11:04:14;9.10;;;8.40;;
39066;SDS011;24821;51.988;6.020;2023-08-30T11:06:41;9.00;;;8.40;;
39066;SDS011;24821;51.988;6.020;2023-08-30T11:09:29;10.02;;;9.07;;
39066;SDS011;24821;51.988;6.020;2023-08-30T11:11:55;17.08;;;12.40;;
39066;SDS011;24821;51.988;6.020;2023-08-30T11:14:21;10.70;;;9.70;;
39066;SDS011;24821;51.988;6.020;2023-08-30T11:16:47;11.02;;;10.13;;
39066;SDS011;24821;51.988;6.020;2023-08-30T11:19:12;9.20;;;8.48;;
39066;SDS011;24821;51.988;6.020;2023-08-30T11:21:39;7.75;;;7.13;;
39066;SDS011;24821;51.988;6.020;2023-08-30T11:24:09;10.85;;;8.15;;
39066;SDS011;24821;51.988;6.020;2023-08-30T11:26:35;8.18;;;7.40;;
39066;SDS011;24821;51.988;6.020;2023-08-30T11:29:07;7.88;;;7.28;;
39066;SDS011;24821;51.988;6.020;2023-08-30T11:31:33;10.55;;;7.93;;
39066;SDS011;24821;51.988;6.020;2023-08-30T11:33:59;8.63;;;7.93;;
39066;SDS011;24821;51.988;6.020;2023-08-30T11:36:29;8.85;;;7.97;;
39066;SDS011;24821;51.988;6.020;2023-08-30T11:38:56;7.93;;;7.32;;
39066;SDS011;24821;51.988;6.020;2023-08-30T11:41:23;9.18;;;8.32;;
39066;SDS011;24821;51.988;6.020;2023-08-30T11:43:50;10.27;;;8.68;;
39066;SDS011;24821;51.988;6.020;2023-08-30T11:46:16;9.18;;;8.50;;
39066;SDS011;24821;51.988;6.020;2023-08-30T11:48:42;8.30;;;7.72;;
39066;SDS011;24821;51.988;6.020;2023-08-30T11:51:09;11.55;;;7.78;;
39066;SDS011;24821;51.988;6.020;2023-08-30T11:53:36;8.30;;;7.60;;
39066;SDS011;24821;51.988;6.020;2023-08-30T11:56:02;8.20;;;7.57;;
39066;SDS011;24821;51.988;6.020;2023-08-30T11:58:31;8.25;;;7.65;;
39066;SDS011;24821;51.988;6.020;2023-08-30T12:00:58;6.88;;;6.40;;
39066;SDS011;24821;51.988;6.020;2023-08-30T12:03:26;6.20;;;5.78;;
39066;SDS011;24821;51.988;6.020;2023-08-30T12:05:53;7.20;;;6.57;;
39066;SDS011;24821;51.988;6.020;2023-08-30T12:08:26;6.10;;;5.63;;
39066;SDS011;24821;51.988;6.020;2023-08-30T12:10:56;6.20;;;5.80;;
39066;SDS011;24821;51.988;6.020;2023-08-30T12:13:26;7.00;;;6.38;;
39066;SDS011;24821;51.988;6.020;2023-08-30T12:15:55;5.55;;;5.25;;
39066;SDS011;24821;51.988;6.020;2023-08-30T12:18:29;7.03;;;5.93;;
39066;SDS011;24821;51.988;6.020;2023-08-30T12:23:24;5.28;;;4.88;;
39066;SDS011;24821;51.988;6.020;2023-08-30T12:26:03;4.75;;;4.45;;
39066;SDS011;24821;51.988;6.020;2023-08-30T12:28:31;5.22;;;4.95;;
39066;SDS011;24821;51.988;6.020;2023-08-30T12:30:58;5.85;;;5.53;;
39066;SDS011;24821;51.988;6.020;2023-08-30T12:33:24;5.10;;;4.80;;
39066;SDS011;24821;51.988;6.020;2023-08-30T12:35:53;5.72;;;5.32;;
39066;SDS011;24821;51.988;6.020;2023-08-30T12:38:19;6.32;;;5.93;;
39066;SDS011;24821;51.988;6.020;2023-08-30T12:40:46;6.28;;;5.63;;
39066;SDS011;24821;51.988;6.020;2023-08-30T12:43:13;6.03;;;5.63;;
39066;SDS011;24821;51.988;6.020;2023-08-30T12:45:40;5.47;;;5.18;;
39066;SDS011;24821;51.988;6.020;2023-08-30T12:48:06;5.47;;;5.07;;
39066;SDS011;24821;51.988;6.020;2023-08-30T12:50:33;5.43;;;5.13;;
39066;SDS011;24821;51.988;6.020;2023-08-30T12:52:59;5.65;;;5.28;;
39066;SDS011;24821;51.988;6.020;2023-08-30T12:55:24;5.13;;;4.93;;
39066;SDS011;24821;51.988;6.020;2023-08-30T12:57:50;6.55;;;6.05;;
39066;SDS011;24821;51.988;6.020;2023-08-30T13:00:16;6.53;;;6.10;;
39066;SDS011;24821;51.988;6.020;2023-08-30T13:02:41;6.20;;;5.75;;
39066;SDS011;24821;51.988;6.020;2023-08-30T13:05:07;5.68;;;5.30;;
39066;SDS011;24821;51.988;6.020;2023-08-30T13:07:32;5.97;;;5.60;;
39066;SDS011;24821;51.988;6.020;2023-08-30T13:09:58;9.35;;;5.38;;
39066;SDS011;24821;51.988;6.020;2023-08-30T13:12:24;8.20;;;6.75;;
39066;SDS011;24821;51.988;6.020;2023-08-30T13:14:49;6.95;;;6.30;;
39066;SDS011;24821;51.988;6.020;2023-08-30T13:17:15;6.03;;;5.50;;
39066;SDS011;24821;51.988;6.020;2023-08-30T13:19:42;6.05;;;5.65;;
39066;SDS011;24821;51.988;6.020;2023-08-30T13:22:08;5.72;;;5.45;;
39066;SDS011;24821;51.988;6.020;2023-08-30T13:24:35;6.22;;;5.38;;
39066;SDS011;24821;51.988;6.020;2023-08-30T13:27:01;7.65;;;6.00;;
39066;SDS011;24821;51.988;6.020;2023-08-30T13:29:27;5.45;;;5.15;;
39066;SDS011;24821;51.988;6.020;2023-08-30T13:31:53;6.28;;;5.93;;
39066;SDS011;24821;51.988;6.020;2023-08-30T13:34:18;6.60;;;6.00;;
39066;SDS011;24821;51.988;6.020;2023-08-30T13:36:44;5.63;;;5.18;;
39066;SDS011;24821;51.988;6.020;2023-08-30T13:39:09;6.40;;;5.85;;
39066;SDS011;24821;51.988;6.020;2023-08-30T13:41:35;5.55;;;5.15;;
39066;SDS011;24821;51.988;6.020;2023-08-30T13:44:01;6.10;;;5.60;;
39066;SDS011;24821;51.988;6.020;2023-08-30T13:46:30;5.13;;;4.82;;
39066;SDS011;24821;51.988;6.020;2023-08-30T13:48:56;5.63;;;5.22;;
39066;SDS011;24821;51.988;6.020;2023-08-30T13:51:22;4.38;;;4.13;;
39066;SDS011;24821;51.988;6.020;2023-08-30T13:53:49;5.80;;;5.30;;
39066;SDS011;24821;51.988;6.020;2023-08-30T13:56:15;5.05;;;4.65;;
39066;SDS011;24821;51.988;6.020;2023-08-30T13:58:41;4.35;;;4.10;;
39066;SDS011;24821;51.988;6.020;2023-08-30T14:01:07;5.25;;;4.95;;
39066;SDS011;24821;51.988;6.020;2023-08-30T14:03:32;6.18;;;4.90;;
39066;SDS011;24821;51.988;6.020;2023-08-30T14:05:58;4.53;;;4.32;;
39066;SDS011;24821;51.988;6.020;2023-08-30T14:08:24;4.97;;;4.55;;
39066;SDS011;24821;51.988;6.020;2023-08-30T14:10:49;5.30;;;5.00;;
39066;SDS011;24821;51.988;6.020;2023-08-30T14:13:15;4.70;;;4.30;;
39066;SDS011;24821;51.988;6.020;2023-08-30T14:15:41;6.15;;;5.35;;
39066;SDS011;24821;51.988;6.020;2023-08-30T14:18:07;4.57;;;4.38;;
39066;SDS011;24821;51.988;6.020;2023-08-30T14:20:33;7.15;;;4.80;;
39066;SDS011;24821;51.988;6.020;2023-08-30T14:22:59;4.57;;;4.35;;
39066;SDS011;24821;51.988;6.020;2023-08-30T14:25:24;6.10;;;4.63;;
39066;SDS011;24821;51.988;6.020;2023-08-30T14:27:50;4.93;;;4.53;;
39066;SDS011;24821;51.988;6.020;2023-08-30T14:30:15;5.75;;;3.25;;
39066;SDS011;24821;51.988;6.020;2023-08-30T14:32:41;5.95;;;3.33;;
39066;SDS011;24821;51.988;6.020;2023-08-30T14:35:07;3.50;;;3.30;;
39066;SDS011;24821;51.988;6.020;2023-08-30T14:37:33;3.70;;;3.40;;
39066;SDS011;24821;51.988;6.020;2023-08-30T14:40:01;3.45;;;3.28;;
39066;SDS011;24821;51.988;6.020;2023-08-30T14:42:28;6.07;;;4.28;;
39066;SDS011;24821;51.988;6.020;2023-08-30T14:44:54;3.97;;;3.78;;
39066;SDS011;24821;51.988;6.020;2023-08-30T14:47:20;6.68;;;4.32;;
39066;SDS011;24821;51.988;6.020;2023-08-30T14:49:46;5.95;;;4.38;;